Terminal Aerodrome Forecast
Issued by NWS Austin/San Antonio, TX

Home | Current Version | Previous Version | Text Only | Print | Product List | Glossary On
Versions: 1 2 3 4 5 6 7 8 9 10 11 12 13 14 15 16 17
000
FTUS44 KEWX 262300
TAFDRT
TAF
KDRT 262339Z 2700/2724 13008KT P6SM BKN200
     FM270400 08004KT P6SM BKN200
     FM270700 34007KT P6SM SCT012 BKN200
     FM271400 35012KT P6SM SCT030=

USA.gov is the U.S. government's official web portal to all federal, state and local government web resources and services.